sensor_id;sensor_type;location;lat;lon;timestamp;P1;durP1;ratioP1;P2;durP2;ratioP2
15706;SDS011;7953;54.302;10.128;2023-04-01T00:01:37;14.83;;;9.10;;
15706;SDS011;7953;54.302;10.128;2023-04-01T00:04:04;16.37;;;9.13;;
15706;SDS011;7953;54.302;10.128;2023-04-01T00:06:31;16.40;;;9.13;;
15706;SDS011;7953;54.302;10.128;2023-04-01T00:08:58;14.17;;;8.93;;
15706;SDS011;7953;54.302;10.128;2023-04-01T00:11:25;11.60;;;8.80;;
15706;SDS011;7953;54.302;10.128;2023-04-01T00:13:52;11.97;;;8.53;;
15706;SDS011;7953;54.302;10.128;2023-04-01T00:16:21;9.00;;;6.87;;
15706;SDS011;7953;54.302;10.128;2023-04-01T00:18:48;13.13;;;8.13;;
15706;SDS011;7953;54.302;10.128;2023-04-01T00:21:16;13.17;;;8.03;;
15706;SDS011;7953;54.302;10.128;2023-04-01T00:23:44;11.47;;;7.93;;
15706;SDS011;7953;54.302;10.128;2023-04-01T00:26:11;11.30;;;7.00;;
15706;SDS011;7953;54.302;10.128;2023-04-01T00:28:39;8.50;;;6.77;;
15706;SDS011;7953;54.302;10.128;2023-04-01T00:31:07;10.30;;;7.00;;
15706;SDS011;7953;54.302;10.128;2023-04-01T00:33:36;9.00;;;7.23;;
15706;SDS011;7953;54.302;10.128;2023-04-01T00:36:07;8.17;;;6.40;;
15706;SDS011;7953;54.302;10.128;2023-04-01T00:38:35;8.73;;;6.53;;
15706;SDS011;7953;54.302;10.128;2023-04-01T00:41:03;6.37;;;5.43;;
15706;SDS011;7953;54.302;10.128;2023-04-01T00:43:31;10.47;;;6.03;;
15706;SDS011;7953;54.302;10.128;2023-04-01T00:45:58;6.73;;;4.73;;
15706;SDS011;7953;54.302;10.128;2023-04-01T00:48:26;7.60;;;4.97;;
15706;SDS011;7953;54.302;10.128;2023-04-01T00:51:00;5.63;;;4.50;;
15706;SDS011;7953;54.302;10.128;2023-04-01T00:53:30;5.90;;;4.30;;
15706;SDS011;7953;54.302;10.128;2023-04-01T00:56:01;4.37;;;3.93;;
15706;SDS011;7953;54.302;10.128;2023-04-01T00:58:32;5.67;;;3.47;;
15706;SDS011;7953;54.302;10.128;2023-04-01T01:01:03;4.67;;;3.97;;
15706;SDS011;7953;54.302;10.128;2023-04-01T01:03:31;5.37;;;3.70;;
15706;SDS011;7953;54.302;10.128;2023-04-01T01:06:07;4.90;;;4.40;;
15706;SDS011;7953;54.302;10.128;2023-04-01T01:08:43;5.63;;;4.57;;
15706;SDS011;7953;54.302;10.128;2023-04-01T01:11:19;4.47;;;4.07;;
15706;SDS011;7953;54.302;10.128;2023-04-01T01:13:54;6.27;;;4.13;;
15706;SDS011;7953;54.302;10.128;2023-04-01T01:16:28;4.90;;;4.40;;
15706;SDS011;7953;54.302;10.128;2023-04-01T01:19:01;6.93;;;4.77;;
15706;SDS011;7953;54.302;10.128;2023-04-01T01:21:43;5.27;;;4.77;;
15706;SDS011;7953;54.302;10.128;2023-04-01T01:24:30;4.97;;;4.17;;
15706;SDS011;7953;54.302;10.128;2023-04-01T01:27:07;5.87;;;4.80;;
15706;SDS011;7953;54.302;10.128;2023-04-01T01:29:46;6.97;;;5.03;;
15706;SDS011;7953;54.302;10.128;2023-04-01T01:32:49;5.63;;;4.87;;
15706;SDS011;7953;54.302;10.128;2023-04-01T01:35:28;8.47;;;5.20;;
15706;SDS011;7953;54.302;10.128;2023-04-01T01:37:59;5.60;;;4.43;;
15706;SDS011;7953;54.302;10.128;2023-04-01T01:40:29;4.73;;;4.23;;
15706;SDS011;7953;54.302;10.128;2023-04-01T01:42:59;4.60;;;3.97;;
15706;SDS011;7953;54.302;10.128;2023-04-01T01:45:30;6.63;;;4.40;;
15706;SDS011;7953;54.302;10.128;2023-04-01T01:48:01;5.73;;;3.43;;
15706;SDS011;7953;54.302;10.128;2023-04-01T01:50:31;6.17;;;4.40;;
15706;SDS011;7953;54.302;10.128;2023-04-01T01:53:00;5.03;;;3.90;;
15706;SDS011;7953;54.302;10.128;2023-04-01T01:55:31;6.73;;;3.80;;
15706;SDS011;7953;54.302;10.128;2023-04-01T01:58:02;5.80;;;3.60;;
15706;SDS011;7953;54.302;10.128;2023-04-01T02:00:32;4.50;;;3.40;;
15706;SDS011;7953;54.302;10.128;2023-04-01T02:03:01;3.77;;;2.90;;
15706;SDS011;7953;54.302;10.128;2023-04-01T02:05:28;5.27;;;3.37;;
15706;SDS011;7953;54.302;10.128;2023-04-01T02:08:00;3.13;;;2.83;;
15706;SDS011;7953;54.302;10.128;2023-04-01T02:10:31;3.73;;;2.80;;
15706;SDS011;7953;54.302;10.128;2023-04-01T02:13:03;2.50;;;2.30;;
15706;SDS011;7953;54.302;10.128;2023-04-01T02:15:40;3.27;;;2.37;;
15706;SDS011;7953;54.302;10.128;2023-04-01T02:18:09;4.03;;;2.20;;
15706;SDS011;7953;54.302;10.128;2023-04-01T02:20:38;3.80;;;2.20;;
15706;SDS011;7953;54.302;10.128;2023-04-01T02:23:07;2.17;;;1.70;;
15706;SDS011;7953;54.302;10.128;2023-04-01T02:25:35;4.60;;;2.60;;
15706;SDS011;7953;54.302;10.128;2023-04-01T02:28:04;2.53;;;1.40;;
15706;SDS011;7953;54.302;10.128;2023-04-01T02:30:33;2.73;;;1.70;;
15706;SDS011;7953;54.302;10.128;2023-04-01T02:33:03;2.20;;;1.90;;
15706;SDS011;7953;54.302;10.128;2023-04-01T02:35:32;3.63;;;1.57;;
15706;SDS011;7953;54.302;10.128;2023-04-01T02:38:01;1.80;;;1.30;;
15706;SDS011;7953;54.302;10.128;2023-04-01T02:40:40;2.03;;;1.40;;
15706;SDS011;7953;54.302;10.128;2023-04-01T02:43:08;1.20;;;1.10;;
15706;SDS011;7953;54.302;10.128;2023-04-01T02:45:34;1.10;;;0.93;;
15706;SDS011;7953;54.302;10.128;2023-04-01T02:48:02;1.90;;;1.00;;
15706;SDS011;7953;54.302;10.128;2023-04-01T02:50:29;3.93;;;1.00;;
15706;SDS011;7953;54.302;10.128;2023-04-01T02:52:56;2.60;;;1.30;;
15706;SDS011;7953;54.302;10.128;2023-04-01T02:55:23;0.90;;;0.90;;
15706;SDS011;7953;54.302;10.128;2023-04-01T02:57:51;1.53;;;1.10;;
15706;SDS011;7953;54.302;10.128;2023-04-01T03:00:18;1.43;;;0.80;;
15706;SDS011;7953;54.302;10.128;2023-04-01T03:02:45;2.80;;;0.90;;
15706;SDS011;7953;54.302;10.128;2023-04-01T03:05:12;1.27;;;0.93;;
15706;SDS011;7953;54.302;10.128;2023-04-01T03:07:39;2.23;;;0.90;;
15706;SDS011;7953;54.302;10.128;2023-04-01T03:10:06;0.50;;;0.50;;
15706;SDS011;7953;54.302;10.128;2023-04-01T03:12:34;1.00;;;0.90;;
15706;SDS011;7953;54.302;10.128;2023-04-01T03:15:03;1.40;;;1.07;;
15706;SDS011;7953;54.302;10.128;2023-04-01T03:17:30;2.30;;;0.77;;
15706;SDS011;7953;54.302;10.128;2023-04-01T03:19:57;1.30;;;0.77;;
15706;SDS011;7953;54.302;10.128;2023-04-01T03:22:24;1.63;;;0.73;;
15706;SDS011;7953;54.302;10.128;2023-04-01T03:24:51;3.20;;;0.90;;
15706;SDS011;7953;54.302;10.128;2023-04-01T03:27:18;2.40;;;1.13;;
15706;SDS011;7953;54.302;10.128;2023-04-01T03:29:45;2.00;;;0.97;;
15706;SDS011;7953;54.302;10.128;2023-04-01T03:32:14;0.70;;;0.70;;
15706;SDS011;7953;54.302;10.128;2023-04-01T03:34:40;0.73;;;0.70;;
15706;SDS011;7953;54.302;10.128;2023-04-01T03:37:07;3.87;;;0.80;;
15706;SDS011;7953;54.302;10.128;2023-04-01T03:39:34;1.83;;;0.70;;
15706;SDS011;7953;54.302;10.128;2023-04-01T03:42:01;0.93;;;0.70;;
15706;SDS011;7953;54.302;10.128;2023-04-01T03:44:30;2.27;;;0.80;;
15706;SDS011;7953;54.302;10.128;2023-04-01T03:46:57;0.80;;;0.70;;
15706;SDS011;7953;54.302;10.128;2023-04-01T03:49:25;3.50;;;0.70;;
15706;SDS011;7953;54.302;10.128;2023-04-01T03:51:52;1.60;;;0.80;;
15706;SDS011;7953;54.302;10.128;2023-04-01T03:54:19;0.97;;;0.60;;
15706;SDS011;7953;54.302;10.128;2023-04-01T03:56:46;1.00;;;0.90;;
15706;SDS011;7953;54.302;10.128;2023-04-01T03:59:13;1.00;;;0.80;;
15706;SDS011;7953;54.302;10.128;2023-04-01T04:01:40;1.90;;;1.10;;
15706;SDS011;7953;54.302;10.128;2023-04-01T04:04:07;1.27;;;1.00;;
15706;SDS011;7953;54.302;10.128;2023-04-01T04:06:39;4.50;;;1.03;;
15706;SDS011;7953;54.302;10.128;2023-04-01T04:09:06;2.27;;;1.00;;
15706;SDS011;7953;54.302;10.128;2023-04-01T04:11:32;0.97;;;0.97;;
15706;SDS011;7953;54.302;10.128;2023-04-01T04:13:59;3.43;;;1.57;;
15706;SDS011;7953;54.302;10.128;2023-04-01T04:16:27;1.90;;;1.20;;
15706;SDS011;7953;54.302;10.128;2023-04-01T04:18:54;1.43;;;1.10;;
15706;SDS011;7953;54.302;10.128;2023-04-01T04:21:20;1.40;;;1.27;;
15706;SDS011;7953;54.302;10.128;2023-04-01T04:23:49;2.10;;;1.43;;
15706;SDS011;7953;54.302;10.128;2023-04-01T04:26:16;2.97;;;1.73;;
15706;SDS011;7953;54.302;10.128;2023-04-01T04:28:43;1.90;;;1.47;;
15706;SDS011;7953;54.302;10.128;2023-04-01T04:31:10;4.83;;;1.77;;
15706;SDS011;7953;54.302;10.128;2023-04-01T04:33:37;2.50;;;1.80;;
15706;SDS011;7953;54.302;10.128;2023-04-01T04:36:04;1.90;;;1.70;;
15706;SDS011;7953;54.302;10.128;2023-04-01T04:38:32;3.70;;;1.73;;
15706;SDS011;7953;54.302;10.128;2023-04-01T04:41:00;3.07;;;1.40;;
15706;SDS011;7953;54.302;10.128;2023-04-01T04:43:27;3.27;;;1.63;;
15706;SDS011;7953;54.302;10.128;2023-04-01T04:45:54;3.83;;;1.60;;
15706;SDS011;7953;54.302;10.128;2023-04-01T04:48:20;1.50;;;1.40;;
15706;SDS011;7953;54.302;10.128;2023-04-01T04:50:48;2.30;;;1.70;;
15706;SDS011;7953;54.302;10.128;2023-04-01T04:53:15;2.43;;;1.90;;
15706;SDS011;7953;54.302;10.128;2023-04-01T04:55:43;1.60;;;1.50;;
15706;SDS011;7953;54.302;10.128;2023-04-01T04:58:12;1.73;;;1.50;;
15706;SDS011;7953;54.302;10.128;2023-04-01T05:00:39;4.53;;;1.60;;
15706;SDS011;7953;54.302;10.128;2023-04-01T05:03:06;3.37;;;1.90;;
15706;SDS011;7953;54.302;10.128;2023-04-01T05:05:34;4.23;;;1.77;;
15706;SDS011;7953;54.302;10.128;2023-04-01T05:08:00;1.70;;;1.60;;
15706;SDS011;7953;54.302;10.128;2023-04-01T05:10:28;2.30;;;1.60;;
15706;SDS011;7953;54.302;10.128;2023-04-01T05:12:55;1.70;;;1.60;;
15706;SDS011;7953;54.302;10.128;2023-04-01T05:15:23;2.60;;;1.30;;
15706;SDS011;7953;54.302;10.128;2023-04-01T05:17:50;5.43;;;1.60;;
15706;SDS011;7953;54.302;10.128;2023-04-01T05:20:17;1.40;;;1.20;;
15706;SDS011;7953;54.302;10.128;2023-04-01T05:22:44;1.87;;;1.37;;
15706;SDS011;7953;54.302;10.128;2023-04-01T05:25:11;1.83;;;1.60;;
15706;SDS011;7953;54.302;10.128;2023-04-01T05:27:38;2.40;;;1.57;;
15706;SDS011;7953;54.302;10.128;2023-04-01T05:30:05;1.60;;;1.50;;
15706;SDS011;7953;54.302;10.128;2023-04-01T05:32:34;2.33;;;1.63;;
15706;SDS011;7953;54.302;10.128;2023-04-01T05:35:01;1.60;;;1.43;;
15706;SDS011;7953;54.302;10.128;2023-04-01T05:37:28;2.33;;;1.47;;
15706;SDS011;7953;54.302;10.128;2023-04-01T05:39:55;3.37;;;2.13;;
15706;SDS011;7953;54.302;10.128;2023-04-01T05:42:23;2.40;;;1.73;;
15706;SDS011;7953;54.302;10.128;2023-04-01T05:44:50;1.83;;;1.37;;
15706;SDS011;7953;54.302;10.128;2023-04-01T05:47:17;1.80;;;1.23;;
15706;SDS011;7953;54.302;10.128;2023-04-01T05:49:46;2.80;;;1.70;;
15706;SDS011;7953;54.302;10.128;2023-04-01T05:52:12;3.50;;;1.57;;
15706;SDS011;7953;54.302;10.128;2023-04-01T05:54:39;1.90;;;1.70;;
15706;SDS011;7953;54.302;10.128;2023-04-01T05:57:06;3.27;;;1.90;;
15706;SDS011;7953;54.302;10.128;2023-04-01T05:59:33;3.77;;;1.90;;
15706;SDS011;7953;54.302;10.128;2023-04-01T06:02:00;4.03;;;1.47;;
15706;SDS011;7953;54.302;10.128;2023-04-01T06:04:28;3.33;;;1.80;;
15706;SDS011;7953;54.302;10.128;2023-04-01T06:07:08;2.40;;;1.50;;
15706;SDS011;7953;54.302;10.128;2023-04-01T06:09:37;4.40;;;1.40;;
15706;SDS011;7953;54.302;10.128;2023-04-01T06:12:10;2.90;;;1.40;;
15706;SDS011;7953;54.302;10.128;2023-04-01T06:14:53;5.33;;;1.73;;
15706;SDS011;7953;54.302;10.128;2023-04-01T06:17:30;1.63;;;1.20;;
15706;SDS011;7953;54.302;10.128;2023-04-01T06:20:08;2.10;;;1.70;;
15706;SDS011;7953;54.302;10.128;2023-04-01T06:22:52;1.90;;;1.70;;
15706;SDS011;7953;54.302;10.128;2023-04-01T06:25:38;1.13;;;1.10;;
15706;SDS011;7953;54.302;10.128;2023-04-01T06:28:30;3.03;;;1.50;;
15706;SDS011;7953;54.302;10.128;2023-04-01T06:31:14;1.73;;;1.20;;
15706;SDS011;7953;54.302;10.128;2023-04-01T06:33:51;4.43;;;1.43;;
15706;SDS011;7953;54.302;10.128;2023-04-01T06:36:47;2.03;;;1.43;;
15706;SDS011;7953;54.302;10.128;2023-04-01T06:45:14;2.80;;;1.47;;
15706;SDS011;7953;54.302;10.128;2023-04-01T06:47:58;4.90;;;1.83;;
15706;SDS011;7953;54.302;10.128;2023-04-01T06:50:38;2.53;;;1.80;;
15706;SDS011;7953;54.302;10.128;2023-04-01T06:53:12;4.17;;;1.70;;
15706;SDS011;7953;54.302;10.128;2023-04-01T06:55:47;2.07;;;1.47;;
15706;SDS011;7953;54.302;10.128;2023-04-01T06:58:19;3.03;;;1.70;;
15706;SDS011;7953;54.302;10.128;2023-04-01T07:00:49;2.83;;;1.50;;
15706;SDS011;7953;54.302;10.128;2023-04-01T07:03:20;1.93;;;1.47;;
15706;SDS011;7953;54.302;10.128;2023-04-01T07:05:54;2.93;;;1.43;;
15706;SDS011;7953;54.302;10.128;2023-04-01T07:08:28;3.20;;;1.50;;
15706;SDS011;7953;54.302;10.128;2023-04-01T07:11:00;3.47;;;1.67;;
15706;SDS011;7953;54.302;10.128;2023-04-01T07:13:31;4.70;;;2.10;;
15706;SDS011;7953;54.302;10.128;2023-04-01T07:16:07;1.87;;;1.40;;
15706;SDS011;7953;54.302;10.128;2023-04-01T07:18:39;4.03;;;2.03;;
15706;SDS011;7953;54.302;10.128;2023-04-01T07:21:13;2.53;;;1.80;;
15706;SDS011;7953;54.302;10.128;2023-04-01T07:23:48;2.40;;;1.60;;
15706;SDS011;7953;54.302;10.128;2023-04-01T07:26:18;3.37;;;1.70;;
15706;SDS011;7953;54.302;10.128;2023-04-01T07:28:47;2.50;;;2.07;;
15706;SDS011;7953;54.302;10.128;2023-04-01T07:31:18;2.10;;;1.50;;
15706;SDS011;7953;54.302;10.128;2023-04-01T07:33:52;3.53;;;1.63;;
15706;SDS011;7953;54.302;10.128;2023-04-01T07:36:27;2.87;;;1.47;;
15706;SDS011;7953;54.302;10.128;2023-04-01T07:39:03;2.63;;;1.37;;
15706;SDS011;7953;54.302;10.128;2023-04-01T07:41:42;2.47;;;1.53;;
15706;SDS011;7953;54.302;10.128;2023-04-01T07:44:17;4.13;;;2.30;;
15706;SDS011;7953;54.302;10.128;2023-04-01T07:47:05;4.33;;;1.50;;
15706;SDS011;7953;54.302;10.128;2023-04-01T07:49:41;2.13;;;1.60;;
15706;SDS011;7953;54.302;10.128;2023-04-01T07:52:19;2.10;;;1.70;;
15706;SDS011;7953;54.302;10.128;2023-04-01T07:54:52;3.10;;;1.77;;
15706;SDS011;7953;54.302;10.128;2023-04-01T07:57:27;1.87;;;1.67;;
15706;SDS011;7953;54.302;10.128;2023-04-01T08:00:04;2.47;;;1.90;;
15706;SDS011;7953;54.302;10.128;2023-04-01T08:02:40;6.37;;;2.87;;
15706;SDS011;7953;54.302;10.128;2023-04-01T08:05:17;1.33;;;1.23;;
15706;SDS011;7953;54.302;10.128;2023-04-01T08:07:53;2.43;;;1.20;;
15706;SDS011;7953;54.302;10.128;2023-04-01T08:10:32;3.67;;;1.73;;
15706;SDS011;7953;54.302;10.128;2023-04-01T08:13:25;2.43;;;1.63;;
15706;SDS011;7953;54.302;10.128;2023-04-01T08:16:06;2.20;;;1.93;;
15706;SDS011;7953;54.302;10.128;2023-04-01T08:18:44;7.23;;;2.50;;
15706;SDS011;7953;54.302;10.128;2023-04-01T08:21:20;4.80;;;2.40;;
15706;SDS011;7953;54.302;10.128;2023-04-01T08:23:51;4.63;;;1.80;;
15706;SDS011;7953;54.302;10.128;2023-04-01T08:26:23;2.90;;;2.00;;
15706;SDS011;7953;54.302;10.128;2023-04-01T08:28:59;4.30;;;2.23;;
15706;SDS011;7953;54.302;10.128;2023-04-01T08:31:29;3.93;;;2.13;;
15706;SDS011;7953;54.302;10.128;2023-04-01T08:33:59;6.27;;;2.20;;
15706;SDS011;7953;54.302;10.128;2023-04-01T08:36:31;3.43;;;2.20;;
15706;SDS011;7953;54.302;10.128;2023-04-01T08:39:02;3.03;;;2.00;;
15706;SDS011;7953;54.302;10.128;2023-04-01T08:41:37;3.77;;;2.43;;
15706;SDS011;7953;54.302;10.128;2023-04-01T08:44:29;6.83;;;3.17;;
15706;SDS011;7953;54.302;10.128;2023-04-01T08:47:19;6.17;;;2.60;;
15706;SDS011;7953;54.302;10.128;2023-04-01T08:50:01;4.13;;;2.27;;
15706;SDS011;7953;54.302;10.128;2023-04-01T08:52:52;4.57;;;2.20;;
15706;SDS011;7953;54.302;10.128;2023-04-01T08:55:36;4.50;;;2.60;;
15706;SDS011;7953;54.302;10.128;2023-04-01T08:58:20;4.53;;;2.70;;
15706;SDS011;7953;54.302;10.128;2023-04-01T09:01:13;6.13;;;3.10;;
15706;SDS011;7953;54.302;10.128;2023-04-01T09:03:54;5.40;;;3.10;;
15706;SDS011;7953;54.302;10.128;2023-04-01T09:06:49;6.30;;;3.73;;
15706;SDS011;7953;54.302;10.128;2023-04-01T09:09:28;12.53;;;3.70;;
15706;SDS011;7953;54.302;10.128;2023-04-01T09:12:26;7.10;;;3.73;;
15706;SDS011;7953;54.302;10.128;2023-04-01T09:15:17;9.63;;;3.67;;
15706;SDS011;7953;54.302;10.128;2023-04-01T09:18:17;11.40;;;4.73;;
15706;SDS011;7953;54.302;10.128;2023-04-01T09:21:16;7.80;;;4.80;;
15706;SDS011;7953;54.302;10.128;2023-04-01T09:23:55;8.60;;;4.53;;
15706;SDS011;7953;54.302;10.128;2023-04-01T09:26:44;10.17;;;5.37;;
15706;SDS011;7953;54.302;10.128;2023-04-01T09:29:30;8.93;;;5.53;;
15706;SDS011;7953;54.302;10.128;2023-04-01T09:35:21;7.03;;;4.83;;
15706;SDS011;7953;54.302;10.128;2023-04-01T09:37:53;9.50;;;4.57;;
15706;SDS011;7953;54.302;10.128;2023-04-01T09:40:31;11.53;;;5.37;;
15706;SDS011;7953;54.302;10.128;2023-04-01T09:43:19;9.27;;;5.43;;
15706;SDS011;7953;54.302;10.128;2023-04-01T09:46:10;8.80;;;5.63;;
15706;SDS011;7953;54.302;10.128;2023-04-01T09:48:46;8.97;;;5.63;;
15706;SDS011;7953;54.302;10.128;2023-04-01T09:51:37;7.17;;;4.63;;
15706;SDS011;7953;54.302;10.128;2023-04-01T09:54:13;8.53;;;4.67;;
15706;SDS011;7953;54.302;10.128;2023-04-01T09:57:01;8.13;;;4.90;;
15706;SDS011;7953;54.302;10.128;2023-04-01T10:06:12;10.60;;;5.60;;
15706;SDS011;7953;54.302;10.128;2023-04-01T10:09:02;10.20;;;5.57;;
15706;SDS011;7953;54.302;10.128;2023-04-01T10:15:06;10.27;;;5.47;;
15706;SDS011;7953;54.302;10.128;2023-04-01T10:18:01;13.50;;;6.17;;
15706;SDS011;7953;54.302;10.128;2023-04-01T10:24:07;7.90;;;6.63;;
15706;SDS011;7953;54.302;10.128;2023-04-01T10:26:56;10.50;;;6.13;;
15706;SDS011;7953;54.302;10.128;2023-04-01T10:29:52;11.97;;;5.93;;
15706;SDS011;7953;54.302;10.128;2023-04-01T10:33:08;12.23;;;5.90;;
15706;SDS011;7953;54.302;10.128;2023-04-01T10:36:10;11.17;;;6.83;;
15706;SDS011;7953;54.302;10.128;2023-04-01T10:39:22;11.27;;;6.00;;
15706;SDS011;7953;54.302;10.128;2023-04-01T10:42:20;10.97;;;6.00;;
15706;SDS011;7953;54.302;10.128;2023-04-01T10:45:16;10.87;;;5.80;;
15706;SDS011;7953;54.302;10.128;2023-04-01T10:54:02;12.73;;;5.80;;
15706;SDS011;7953;54.302;10.128;2023-04-01T10:56:55;11.93;;;6.20;;
15706;SDS011;7953;54.302;10.128;2023-04-01T11:05:50;12.63;;;5.87;;
15706;SDS011;7953;54.302;10.128;2023-04-01T11:08:56;14.63;;;7.13;;
15706;SDS011;7953;54.302;10.128;2023-04-01T11:15:09;9.63;;;5.50;;
15706;SDS011;7953;54.302;10.128;2023-04-01T11:18:14;9.93;;;5.93;;
15706;SDS011;7953;54.302;10.128;2023-04-01T11:27:09;10.73;;;6.10;;
15706;SDS011;7953;54.302;10.128;2023-04-01T11:32:50;10.17;;;5.70;;
15706;SDS011;7953;54.302;10.128;2023-04-01T11:35:32;10.03;;;5.30;;
15706;SDS011;7953;54.302;10.128;2023-04-01T11:38:19;11.40;;;6.47;;
15706;SDS011;7953;54.302;10.128;2023-04-01T11:40:54;10.80;;;5.03;;
15706;SDS011;7953;54.302;10.128;2023-04-01T11:43:34;9.40;;;5.40;;
15706;SDS011;7953;54.302;10.128;2023-04-01T11:46:10;10.37;;;5.17;;
15706;SDS011;7953;54.302;10.128;2023-04-01T11:48:50;16.83;;;5.53;;
15706;SDS011;7953;54.302;10.128;2023-04-01T11:54:22;9.93;;;5.20;;
15706;SDS011;7953;54.302;10.128;2023-04-01T11:57:03;9.87;;;5.10;;
15706;SDS011;7953;54.302;10.128;2023-04-01T11:59:49;9.07;;;4.67;;
15706;SDS011;7953;54.302;10.128;2023-04-01T12:02:29;7.73;;;4.53;;
15706;SDS011;7953;54.302;10.128;2023-04-01T12:05:12;8.33;;;6.13;;
15706;SDS011;7953;54.302;10.128;2023-04-01T12:10:53;7.30;;;4.63;;
15706;SDS011;7953;54.302;10.128;2023-04-01T12:13:30;8.47;;;4.40;;
15706;SDS011;7953;54.302;10.128;2023-04-01T12:16:08;6.17;;;4.60;;
15706;SDS011;7953;54.302;10.128;2023-04-01T12:18:48;9.37;;;4.47;;
15706;SDS011;7953;54.302;10.128;2023-04-01T12:21:23;10.17;;;5.07;;
15706;SDS011;7953;54.302;10.128;2023-04-01T12:29:59;13.50;;;4.80;;
15706;SDS011;7953;54.302;10.128;2023-04-01T12:32:52;5.80;;;4.40;;
15706;SDS011;7953;54.302;10.128;2023-04-01T12:35:34;11.47;;;4.67;;
15706;SDS011;7953;54.302;10.128;2023-04-01T12:38:15;10.53;;;4.63;;
15706;SDS011;7953;54.302;10.128;2023-04-01T12:40:56;9.83;;;3.87;;
15706;SDS011;7953;54.302;10.128;2023-04-01T12:46:48;7.47;;;4.50;;
15706;SDS011;7953;54.302;10.128;2023-04-01T12:49:32;6.70;;;3.60;;
15706;SDS011;7953;54.302;10.128;2023-04-01T12:52:12;11.13;;;4.03;;
15706;SDS011;7953;54.302;10.128;2023-04-01T13:00:51;7.73;;;4.20;;
15706;SDS011;7953;54.302;10.128;2023-04-01T13:03:44;10.93;;;4.50;;
15706;SDS011;7953;54.302;10.128;2023-04-01T13:06:37;12.47;;;4.67;;
15706;SDS011;7953;54.302;10.128;2023-04-01T13:09:24;6.30;;;4.43;;
15706;SDS011;7953;54.302;10.128;2023-04-01T13:12:15;7.47;;;3.90;;
15706;SDS011;7953;54.302;10.128;2023-04-01T13:17:41;11.60;;;3.93;;
15706;SDS011;7953;54.302;10.128;2023-04-01T13:20:16;6.93;;;3.50;;
15706;SDS011;7953;54.302;10.128;2023-04-01T13:22:56;12.70;;;4.83;;
15706;SDS011;7953;54.302;10.128;2023-04-01T13:25:36;9.57;;;3.87;;
15706;SDS011;7953;54.302;10.128;2023-04-01T13:28:09;7.50;;;3.43;;
15706;SDS011;7953;54.302;10.128;2023-04-01T13:30:43;10.70;;;3.57;;
15706;SDS011;7953;54.302;10.128;2023-04-01T13:33:16;7.17;;;3.33;;
15706;SDS011;7953;54.302;10.128;2023-04-01T13:35:55;11.10;;;3.67;;
15706;SDS011;7953;54.302;10.128;2023-04-01T13:38:37;6.47;;;3.77;;
15706;SDS011;7953;54.302;10.128;2023-04-01T13:41:15;5.97;;;3.20;;
15706;SDS011;7953;54.302;10.128;2023-04-01T13:44:02;11.40;;;4.20;;
15706;SDS011;7953;54.302;10.128;2023-04-01T13:46:41;5.80;;;3.40;;
15706;SDS011;7953;54.302;10.128;2023-04-01T13:49:31;7.47;;;4.80;;
15706;SDS011;7953;54.302;10.128;2023-04-01T13:52:37;7.07;;;3.57;;
15706;SDS011;7953;54.302;10.128;2023-04-01T13:55:31;6.33;;;3.50;;
15706;SDS011;7953;54.302;10.128;2023-04-01T13:58:19;7.93;;;3.50;;
15706;SDS011;7953;54.302;10.128;2023-04-01T14:01:05;8.00;;;2.70;;
15706;SDS011;7953;54.302;10.128;2023-04-01T14:03:44;8.37;;;3.40;;
15706;SDS011;7953;54.302;10.128;2023-04-01T14:06:34;6.23;;;3.57;;
15706;SDS011;7953;54.302;10.128;2023-04-01T14:09:15;4.83;;;2.73;;
15706;SDS011;7953;54.302;10.128;2023-04-01T14:11:53;4.90;;;2.93;;
15706;SDS011;7953;54.302;10.128;2023-04-01T14:14:31;5.70;;;3.57;;
15706;SDS011;7953;54.302;10.128;2023-04-01T14:17:14;3.73;;;2.90;;
15706;SDS011;7953;54.302;10.128;2023-04-01T14:19:56;5.70;;;2.83;;
15706;SDS011;7953;54.302;10.128;2023-04-01T14:22:33;5.73;;;2.77;;
15706;SDS011;7953;54.302;10.128;2023-04-01T14:25:14;8.27;;;3.13;;
15706;SDS011;7953;54.302;10.128;2023-04-01T14:27:54;4.37;;;2.53;;
15706;SDS011;7953;54.302;10.128;2023-04-01T14:33:38;8.33;;;3.00;;
15706;SDS011;7953;54.302;10.128;2023-04-01T14:36:19;7.87;;;2.87;;
15706;SDS011;7953;54.302;10.128;2023-04-01T14:38:59;8.47;;;2.70;;
15706;SDS011;7953;54.302;10.128;2023-04-01T14:41:37;4.90;;;2.63;;
15706;SDS011;7953;54.302;10.128;2023-04-01T14:44:23;8.03;;;3.27;;
15706;SDS011;7953;54.302;10.128;2023-04-01T14:47:16;5.57;;;2.63;;
15706;SDS011;7953;54.302;10.128;2023-04-01T14:49:56;8.07;;;2.57;;
15706;SDS011;7953;54.302;10.128;2023-04-01T14:52:32;7.93;;;2.90;;
15706;SDS011;7953;54.302;10.128;2023-04-01T14:55:02;8.33;;;2.80;;
15706;SDS011;7953;54.302;10.128;2023-04-01T14:57:57;4.10;;;2.70;;
15706;SDS011;7953;54.302;10.128;2023-04-01T15:00:25;9.70;;;3.20;;
15706;SDS011;7953;54.302;10.128;2023-04-01T15:02:56;4.00;;;2.53;;
15706;SDS011;7953;54.302;10.128;2023-04-01T15:05:32;6.73;;;2.57;;
15706;SDS011;7953;54.302;10.128;2023-04-01T15:08:06;6.10;;;2.60;;
15706;SDS011;7953;54.302;10.128;2023-04-01T15:10:43;15.50;;;3.10;;
15706;SDS011;7953;54.302;10.128;2023-04-01T15:13:22;5.93;;;2.97;;
15706;SDS011;7953;54.302;10.128;2023-04-01T15:16:06;9.27;;;2.40;;
15706;SDS011;7953;54.302;10.128;2023-04-01T15:18:47;3.80;;;2.07;;
15706;SDS011;7953;54.302;10.128;2023-04-01T15:21:37;8.33;;;2.87;;
15706;SDS011;7953;54.302;10.128;2023-04-01T15:24:20;9.20;;;2.53;;
15706;SDS011;7953;54.302;10.128;2023-04-01T15:32:39;6.33;;;2.80;;
15706;SDS011;7953;54.302;10.128;2023-04-01T15:35:21;8.40;;;2.70;;
15706;SDS011;7953;54.302;10.128;2023-04-01T15:37:59;5.10;;;2.50;;
15706;SDS011;7953;54.302;10.128;2023-04-01T15:40:36;6.00;;;2.13;;
15706;SDS011;7953;54.302;10.128;2023-04-01T15:43:12;9.63;;;3.10;;
15706;SDS011;7953;54.302;10.128;2023-04-01T15:45:51;5.47;;;2.20;;
15706;SDS011;7953;54.302;10.128;2023-04-01T15:48:31;6.30;;;2.57;;
15706;SDS011;7953;54.302;10.128;2023-04-01T15:51:26;4.67;;;2.33;;
15706;SDS011;7953;54.302;10.128;2023-04-01T15:54:18;5.17;;;2.37;;
15706;SDS011;7953;54.302;10.128;2023-04-01T15:57:13;8.10;;;2.37;;
15706;SDS011;7953;54.302;10.128;2023-04-01T16:02:47;2.00;;;1.80;;
15706;SDS011;7953;54.302;10.128;2023-04-01T16:05:23;5.60;;;2.10;;
15706;SDS011;7953;54.302;10.128;2023-04-01T16:08:05;15.57;;;11.97;;
15706;SDS011;7953;54.302;10.128;2023-04-01T16:10:56;10.20;;;6.63;;
15706;SDS011;7953;54.302;10.128;2023-04-01T16:13:35;9.13;;;4.53;;
15706;SDS011;7953;54.302;10.128;2023-04-01T16:16:14;11.33;;;5.50;;
15706;SDS011;7953;54.302;10.128;2023-04-01T16:19:03;8.67;;;3.60;;
15706;SDS011;7953;54.302;10.128;2023-04-01T16:21:45;4.43;;;2.20;;
15706;SDS011;7953;54.302;10.128;2023-04-01T16:24:19;8.00;;;3.23;;
15706;SDS011;7953;54.302;10.128;2023-04-01T16:26:52;7.47;;;2.57;;
15706;SDS011;7953;54.302;10.128;2023-04-01T16:29:26;6.53;;;2.30;;
15706;SDS011;7953;54.302;10.128;2023-04-01T16:32:00;8.67;;;3.10;;
15706;SDS011;7953;54.302;10.128;2023-04-01T16:34:56;12.30;;;5.00;;
15706;SDS011;7953;54.302;10.128;2023-04-01T16:37:32;14.20;;;7.17;;
15706;SDS011;7953;54.302;10.128;2023-04-01T16:40:11;12.83;;;7.20;;
15706;SDS011;7953;54.302;10.128;2023-04-01T16:42:47;7.17;;;6.17;;
15706;SDS011;7953;54.302;10.128;2023-04-01T16:45:21;6.47;;;2.50;;
15706;SDS011;7953;54.302;10.128;2023-04-01T16:47:56;6.63;;;2.00;;
15706;SDS011;7953;54.302;10.128;2023-04-01T16:50:28;4.07;;;2.17;;
15706;SDS011;7953;54.302;10.128;2023-04-01T16:53:08;3.50;;;2.63;;
15706;SDS011;7953;54.302;10.128;2023-04-01T16:55:43;4.53;;;1.93;;
15706;SDS011;7953;54.302;10.128;2023-04-01T16:58:18;4.47;;;2.00;;
15706;SDS011;7953;54.302;10.128;2023-04-01T17:00:49;6.83;;;1.83;;
15706;SDS011;7953;54.302;10.128;2023-04-01T17:03:20;6.20;;;2.70;;